createdAt,value
2019-01-18T00:04:14.143Z,3.93
2019-01-18T00:06:43.633Z,2.50
2019-01-18T00:09:12.977Z,3.90
2019-01-18T00:12:03.360Z,2.13
2019-01-18T00:18:09.880Z,2.70
2019-01-18T00:23:59.813Z,3.10
2019-01-18T00:26:42.759Z,3.20
2019-01-18T00:29:56.187Z,2.67
2019-01-18T00:38:16.936Z,4.50
2019-01-18T00:44:00.932Z,2.83
2019-01-18T00:47:10.563Z,1.63
2019-01-18T00:50:10.988Z,2.07
2019-01-18T00:52:40.382Z,1.83
2019-01-18T00:55:24.876Z,2.20
2019-01-18T00:58:26.958Z,3.03
2019-01-18T01:01:10.729Z,4.77
2019-01-18T01:03:40.555Z,2.27
2019-01-18T01:06:10.174Z,2.70
2019-01-18T01:08:39.786Z,2.10
2019-01-18T01:11:09.110Z,4.60
2019-01-18T01:13:40.062Z,2.90
2019-01-18T01:19:37.405Z,5.70
2019-01-18T01:22:07.558Z,3.50
2019-01-18T01:24:36.926Z,9.60
2019-01-18T01:27:06.318Z,5.03
2019-01-18T01:29:35.659Z,2.37
2019-01-18T01:32:36.065Z,7.07
2019-01-18T01:35:26.742Z,2.10
2019-01-18T01:41:04.146Z,3.70
2019-01-18T01:43:33.721Z,6.83
2019-01-18T01:46:24.936Z,4.53
2019-01-18T01:49:14.986Z,3.30
2019-01-18T01:52:04.442Z,1.90
2019-01-18T02:01:28.045Z,2.33
2019-01-18T02:04:05.921Z,3.60
2019-01-18T02:19:00.215Z,3.63
2019-01-18T02:21:29.566Z,2.30
2019-01-18T02:23:58.901Z,4.03
2019-01-18T02:26:30.940Z,3.97
2019-01-18T02:29:00.262Z,4.50
2019-01-18T02:31:29.601Z,1.67
2019-01-18T02:33:58.929Z,4.20
2019-01-18T02:36:28.271Z,5.47
2019-01-18T02:38:57.598Z,3.40
2019-01-18T02:41:26.939Z,5.27
2019-01-18T02:43:56.267Z,6.60
2019-01-18T02:46:25.838Z,6.13
2019-01-18T02:48:55.175Z,4.17
2019-01-18T02:51:24.506Z,6.10
2019-01-18T02:53:54.255Z,4.03
2019-01-18T02:56:23.594Z,3.43
2019-01-18T02:58:52.931Z,4.57
2019-01-18T03:01:23.880Z,2.93
2019-01-18T03:03:53.227Z,2.70
2019-01-18T03:06:22.573Z,5.73
2019-01-18T03:09:11.260Z,5.93
2019-01-18T03:14:19.583Z,5.77
2019-01-18T03:16:48.914Z,6.93
2019-01-18T03:19:18.316Z,3.50
2019-01-18T03:21:47.932Z,5.70
2019-01-18T03:24:17.515Z,4.20
2019-01-18T03:26:47.141Z,7.57
2019-01-18T03:29:16.478Z,5.93
2019-01-18T03:31:45.809Z,5.33
2019-01-18T03:34:15.149Z,4.87
2019-01-18T03:36:44.474Z,6.23
2019-01-18T03:39:13.816Z,4.23
2019-01-18T03:41:43.445Z,3.50
2019-01-18T03:44:12.789Z,4.77
2019-01-18T03:46:42.122Z,4.80
2019-01-18T03:49:30.844Z,3.80
2019-01-18T03:52:00.171Z,6.23
2019-01-18T03:54:29.576Z,4.10
2019-01-18T03:56:58.899Z,6.83
2019-01-18T03:59:28.476Z,7.33
2019-01-18T04:01:57.808Z,5.57
2019-01-18T04:04:46.582Z,3.97
2019-01-18T04:07:15.909Z,4.13
2019-01-18T04:09:45.242Z,4.50
2019-01-18T04:12:14.910Z,8.40
2019-01-18T04:14:44.330Z,11.23
2019-01-18T04:17:13.659Z,5.33
2019-01-18T04:19:44.611Z,4.13
2019-01-18T04:22:13.935Z,7.63
2019-01-18T04:24:43.296Z,9.63
2019-01-18T04:27:12.618Z,7.13
2019-01-18T04:29:41.960Z,4.10
2019-01-18T04:32:11.291Z,4.30
2019-01-18T04:35:00.007Z,6.23
2019-01-18T04:37:29.346Z,3.50
2019-01-18T04:39:58.669Z,4.20
2019-01-18T04:42:28.014Z,3.33
2019-01-18T04:44:57.335Z,4.23
2019-01-18T04:47:26.674Z,8.20
2019-01-18T04:49:55.999Z,3.20
2019-01-18T04:52:36.174Z,4.57
2019-01-18T04:58:39.472Z,6.47
2019-01-18T05:01:08.814Z,4.90
2019-01-18T05:03:38.149Z,4.90
2019-01-18T05:07:41.910Z,11.13
2019-01-18T05:10:51.584Z,5.97
2019-01-18T05:13:20.904Z,5.50
2019-01-18T05:15:50.578Z,8.67
2019-01-18T05:18:20.441Z,6.87
2019-01-18T05:20:49.857Z,6.60
2019-01-18T05:23:19.180Z,6.37
2019-01-18T05:25:49.141Z,6.87
2019-01-18T05:28:19.035Z,8.15
2019-01-18T05:30:48.366Z,6.27
2019-01-18T05:33:18.015Z,9.20
2019-01-18T05:35:47.347Z,6.43
2019-01-18T05:38:16.993Z,6.78
2019-01-18T05:43:46.513Z,10.58
2019-01-18T05:46:15.851Z,7.73
2019-01-18T05:48:45.202Z,9.43
2019-01-18T05:51:15.421Z,9.75
2019-01-18T05:53:45.151Z,10.93
2019-01-18T05:56:14.784Z,7.58
2019-01-18T05:58:44.168Z,7.70
2019-01-18T06:01:13.828Z,12.40
2019-01-18T06:03:43.178Z,11.00
2019-01-18T06:06:13.155Z,11.48
2019-01-18T06:08:42.733Z,10.13
2019-01-18T06:11:12.600Z,8.20
2019-01-18T06:13:41.988Z,12.40
2019-01-18T06:16:11.332Z,10.90
2019-01-18T06:18:40.909Z,9.40
2019-01-18T06:21:12.166Z,9.23
2019-01-18T06:23:41.583Z,11.40
2019-01-18T06:26:11.653Z,6.33
2019-01-18T06:28:41.254Z,8.97
2019-01-18T06:31:11.536Z,8.33
2019-01-18T06:33:41.015Z,11.90
2019-01-18T06:36:11.306Z,13.05
2019-01-18T06:38:40.652Z,5.73
2019-01-18T06:44:07.134Z,12.37
2019-01-18T06:46:36.480Z,5.40
2019-01-18T06:51:56.031Z,7.83
2019-01-18T06:54:25.370Z,11.03
2019-01-18T06:56:54.717Z,7.67
2019-01-18T06:59:24.385Z,6.40
2019-01-18T07:01:54.049Z,6.70
2019-01-18T07:04:40.800Z,8.98
2019-01-18T07:07:06.263Z,5.60
2019-01-18T07:09:35.883Z,10.72
2019-01-18T07:12:07.132Z,11.10
2019-01-18T07:14:36.460Z,7.93
2019-01-18T07:17:06.469Z,11.73
2019-01-18T07:19:36.111Z,14.23
2019-01-18T07:22:05.446Z,16.83
2019-01-18T07:24:35.067Z,8.93
2019-01-18T07:27:04.477Z,13.87
2019-01-18T07:29:53.717Z,13.38
2019-01-18T07:32:23.638Z,8.88
2019-01-18T07:34:54.593Z,10.77
2019-01-18T07:37:24.492Z,12.30
2019-01-18T07:39:54.121Z,11.12
2019-01-18T07:42:23.763Z,11.87
2019-01-18T07:44:53.259Z,16.60
2019-01-18T07:47:22.743Z,18.87
2019-01-18T07:49:52.245Z,15.43
2019-01-18T07:52:21.594Z,15.67
2019-01-18T07:54:51.148Z,10.83
2019-01-18T07:57:41.702Z,15.10
2019-01-18T08:00:32.549Z,11.23
2019-01-18T08:03:02.200Z,16.62
2019-01-18T08:05:31.543Z,20.23
2019-01-18T08:08:03.021Z,18.05
2019-01-18T08:10:51.634Z,18.20
2019-01-18T08:13:21.890Z,21.77
2019-01-18T08:15:51.387Z,19.50
2019-01-18T08:18:20.858Z,16.97
2019-01-18T08:20:50.378Z,17.47
2019-01-18T08:23:40.473Z,18.65
2019-01-18T08:26:11.179Z,19.55
2019-01-18T08:28:40.840Z,14.90
2019-01-18T08:31:11.606Z,12.43
2019-01-18T08:33:41.508Z,11.55
2019-01-18T08:36:12.020Z,7.17
2019-01-18T08:38:41.364Z,6.53
2019-01-18T08:41:11.947Z,6.47
2019-01-18T08:43:41.671Z,7.93
2019-01-18T08:46:31.004Z,4.10
2019-01-18T08:49:01.251Z,10.33
2019-01-18T08:51:50.579Z,7.50
2019-01-18T08:54:19.971Z,6.17
2019-01-18T08:56:49.409Z,7.77
2019-01-18T08:59:19.572Z,5.20
2019-01-18T09:01:48.896Z,5.93
2019-01-18T09:04:18.879Z,2.80
2019-01-18T09:07:07.483Z,4.63
2019-01-18T09:09:37.061Z,3.47
2019-01-18T09:12:06.439Z,5.30
2019-01-18T09:14:35.852Z,3.43
2019-01-18T09:17:05.578Z,3.83
2019-01-18T09:19:34.919Z,3.83
2019-01-18T09:22:23.903Z,4.07
2019-01-18T09:25:05.776Z,5.00
2019-01-18T09:27:35.413Z,5.17
2019-01-18T09:33:26.502Z,3.95
2019-01-18T09:35:55.836Z,12.73
2019-01-18T09:41:39.853Z,4.50
2019-01-18T09:44:10.250Z,2.95
2019-01-18T09:46:39.611Z,6.10
2019-01-18T09:49:08.955Z,3.70
2019-01-18T09:51:57.829Z,3.50
2019-01-18T09:54:27.461Z,4.40
2019-01-18T09:56:56.790Z,3.33
2019-01-18T09:59:26.148Z,3.20
2019-01-18T10:01:55.641Z,4.43
2019-01-18T10:04:24.979Z,2.77
2019-01-18T10:06:54.534Z,5.50
2019-01-18T10:09:23.876Z,3.20
2019-01-18T10:11:53.788Z,3.80
2019-01-18T10:14:23.772Z,2.52
2019-01-18T10:16:53.121Z,3.97
2019-01-18T10:19:22.757Z,8.50
2019-01-18T10:21:52.380Z,3.55
2019-01-18T10:24:27.873Z,4.85
2019-01-18T10:26:57.496Z,6.35
2019-01-18T10:29:28.283Z,4.62
2019-01-18T10:32:03.652Z,4.13
2019-01-18T10:34:32.998Z,3.20
2019-01-18T10:37:02.551Z,5.13
2019-01-18T10:39:31.892Z,2.43
2019-01-18T10:42:01.557Z,3.20
2019-01-18T10:44:30.897Z,6.97
2019-01-18T10:47:00.278Z,3.17
2019-01-18T10:49:30.211Z,5.12
2019-01-18T10:51:59.659Z,4.33
2019-01-18T10:54:28.999Z,4.20
2019-01-18T10:56:58.586Z,2.10
2019-01-18T11:02:17.171Z,3.10
2019-01-18T11:04:59.704Z,2.60
2019-01-18T11:07:28.946Z,4.13
2019-01-18T11:09:58.620Z,5.58
2019-01-18T11:12:28.227Z,6.87
2019-01-18T11:14:57.667Z,3.60
2019-01-18T11:17:27.314Z,17.07
2019-01-18T11:26:01.044Z,14.93
2019-01-18T11:28:30.676Z,6.10
2019-01-18T11:31:00.012Z,8.50
2019-01-18T11:33:29.637Z,15.48
2019-01-18T11:38:53.738Z,3.60
2019-01-18T11:41:23.327Z,7.00
2019-01-18T11:43:52.864Z,7.23
2019-01-18T11:46:24.056Z,4.57
2019-01-18T11:48:53.674Z,4.60
2019-01-18T11:51:23.304Z,3.83
2019-01-18T11:53:52.879Z,2.20
2019-01-18T11:56:22.214Z,3.40
2019-01-18T11:58:52.000Z,3.40
2019-01-18T12:01:21.335Z,3.00
2019-01-18T12:03:51.017Z,1.93
2019-01-18T12:07:00.391Z,6.17
2019-01-18T12:09:29.970Z,30.07
2019-01-18T12:11:59.317Z,31.17
2019-01-18T12:14:28.879Z,61.87
2019-01-18T12:16:58.231Z,17.57
2019-01-18T12:19:27.851Z,15.28
2019-01-18T12:21:57.449Z,4.50
2019-01-18T12:24:46.173Z,3.30
2019-01-18T12:27:16.154Z,2.90
2019-01-18T12:29:45.476Z,7.60
2019-01-18T12:32:15.493Z,2.17
2019-01-18T12:34:44.928Z,13.10
2019-01-18T12:37:14.278Z,3.53
2019-01-18T12:39:43.850Z,5.33
2019-01-18T12:42:13.493Z,4.27
2019-01-18T12:44:42.994Z,2.60
2019-01-18T12:47:31.757Z,2.57
2019-01-18T12:50:01.079Z,2.10
2019-01-18T12:52:31.525Z,1.57
2019-01-18T12:55:00.851Z,5.40
2019-01-18T12:57:30.188Z,3.70
2019-01-18T12:59:59.516Z,4.17
2019-01-18T13:02:35.190Z,2.30
2019-01-18T13:08:59.707Z,2.07
2019-01-18T13:11:29.092Z,3.23
2019-01-18T13:13:58.421Z,2.50
2019-01-18T13:16:28.059Z,3.15
2019-01-18T13:18:57.382Z,2.77
2019-01-18T13:21:27.024Z,2.08
2019-01-18T13:23:56.353Z,2.47
2019-01-18T13:26:25.986Z,2.30
2019-01-18T13:28:55.309Z,2.20
2019-01-18T13:31:25.546Z,3.00
2019-01-18T13:34:14.662Z,4.37
2019-01-18T13:36:56.756Z,16.77
2019-01-18T13:39:26.630Z,2.00
2019-01-18T13:41:55.991Z,2.37
2019-01-18T13:44:25.315Z,2.67
2019-01-18T13:46:56.271Z,5.83
2019-01-18T13:49:26.185Z,2.12
2019-01-18T13:51:55.554Z,3.00
2019-01-18T13:54:25.172Z,2.50
2019-01-18T13:56:54.808Z,2.83
2019-01-18T13:59:24.285Z,4.53
2019-01-18T14:01:53.902Z,3.83
2019-01-18T14:04:23.844Z,2.63
2019-01-18T14:07:12.813Z,5.03
2019-01-18T14:09:42.202Z,4.43
2019-01-18T14:12:12.564Z,7.37
2019-01-18T14:14:55.185Z,3.60
2019-01-18T14:17:24.530Z,4.93
2019-01-18T14:20:06.546Z,2.73
2019-01-18T14:22:36.114Z,7.03
2019-01-18T14:28:25.836Z,2.13
2019-01-18T14:30:55.510Z,2.13
2019-01-18T14:33:25.148Z,1.90
2019-01-18T14:35:54.477Z,4.03
2019-01-18T14:38:25.236Z,2.57
2019-01-18T14:41:54.541Z,1.47
2019-01-18T14:44:24.476Z,6.00
2019-01-18T14:46:54.167Z,10.53
2019-01-18T14:49:23.787Z,5.90
2019-01-18T14:51:53.470Z,2.20
2019-01-18T14:54:22.795Z,2.27
2019-01-18T14:57:11.797Z,7.90
2019-01-18T14:59:41.371Z,2.60
2019-01-18T15:02:10.701Z,3.13
2019-01-18T15:11:30.892Z,5.77
2019-01-18T15:14:19.731Z,1.60
2019-01-18T15:16:49.595Z,2.10
2019-01-18T15:19:18.945Z,3.02
2019-01-18T15:21:48.540Z,1.90
2019-01-18T15:24:17.882Z,5.97
2019-01-18T15:26:47.468Z,2.27
2019-01-18T15:29:16.814Z,4.00
2019-01-18T15:31:46.408Z,3.83
2019-01-18T15:34:16.045Z,5.60
2019-01-18T15:36:45.772Z,4.73
2019-01-18T15:39:22.547Z,9.63
2019-01-18T15:41:51.887Z,14.97
2019-01-18T15:44:23.155Z,25.35
2019-01-18T15:46:52.522Z,13.33
2019-01-18T15:49:22.171Z,18.13
2019-01-18T15:51:53.715Z,3.95
2019-01-18T15:54:23.067Z,11.43
2019-01-18T15:56:52.495Z,4.67
2019-01-18T15:59:21.950Z,9.10
2019-01-18T16:01:51.524Z,7.40
2019-01-18T16:04:20.864Z,6.92
2019-01-18T16:06:50.432Z,10.33
2019-01-18T16:09:19.860Z,3.90
2019-01-18T16:11:50.286Z,7.07
2019-01-18T16:14:19.784Z,4.13
2019-01-18T16:16:49.800Z,4.75
2019-01-18T16:19:19.140Z,4.50
2019-01-18T16:21:48.675Z,2.83
2019-01-18T16:24:18.029Z,4.80
2019-01-18T16:26:48.964Z,5.43
2019-01-18T16:29:18.792Z,3.72
2019-01-18T16:31:48.416Z,5.83
2019-01-18T16:34:18.296Z,5.23
2019-01-18T16:36:47.697Z,6.13
2019-01-18T16:39:17.051Z,4.40
2019-01-18T16:41:46.582Z,5.13
2019-01-18T16:44:15.914Z,4.27
2019-01-18T16:46:45.547Z,5.75
2019-01-18T16:49:14.881Z,4.13
2019-01-18T16:51:44.220Z,5.13
2019-01-18T16:54:13.840Z,9.60
2019-01-18T16:56:43.432Z,10.00
2019-01-18T16:59:12.958Z,10.30
2019-01-18T17:01:42.599Z,6.05
2019-01-18T17:04:22.936Z,3.50
2019-01-18T17:06:52.276Z,4.77
2019-01-18T17:09:22.154Z,4.12
2019-01-18T17:11:51.670Z,4.80
2019-01-18T17:14:22.684Z,7.77
2019-01-18T17:16:52.025Z,6.90
2019-01-18T17:19:21.643Z,7.40
2019-01-18T17:21:50.988Z,10.07
2019-01-18T17:24:20.606Z,8.98
2019-01-18T17:26:49.961Z,15.50
2019-01-18T17:29:19.932Z,13.70
2019-01-18T17:31:49.586Z,15.95
2019-01-18T17:34:18.914Z,7.00
2019-01-18T17:36:48.389Z,8.10
2019-01-18T17:46:21.885Z,6.40
2019-01-18T17:49:34.664Z,9.97
2019-01-18T17:55:45.117Z,6.77
2019-01-18T17:58:54.986Z,12.55
2019-01-18T18:02:03.050Z,11.00
2019-01-18T18:05:12.703Z,10.30
2019-01-18T18:14:25.132Z,12.57
2019-01-18T18:17:33.540Z,9.20
2019-01-18T18:20:41.581Z,10.40
2019-01-18T18:23:49.702Z,10.20
2019-01-18T18:26:57.760Z,9.23
2019-01-18T18:33:08.327Z,13.83
2019-01-18T18:39:18.628Z,10.50
2019-01-18T18:45:45.808Z,11.80
2019-01-18T18:48:55.196Z,12.87
2019-01-18T19:04:12.712Z,13.83
2019-01-18T19:07:13.274Z,15.73
2019-01-18T19:10:21.816Z,14.03
2019-01-18T19:13:31.260Z,13.37
2019-01-18T19:16:39.580Z,21.33
2019-01-18T19:19:49.031Z,13.73
2019-01-18T19:28:54.145Z,15.32
2019-01-18T19:35:36.631Z,17.00
2019-01-18T19:38:44.705Z,21.07
2019-01-18T19:51:17.682Z,16.77
2019-01-18T19:54:27.130Z,19.03
2019-01-18T20:01:09.739Z,14.90
2019-01-18T20:04:19.126Z,21.30
2019-01-18T20:07:27.179Z,18.90
2019-01-18T20:17:06.340Z,17.60
2019-01-18T20:23:17.058Z,23.20
2019-01-18T20:26:26.522Z,21.80
2019-01-18T20:29:34.930Z,18.30
2019-01-18T20:35:44.861Z,22.45
2019-01-18T20:38:53.075Z,19.53
2019-01-18T20:42:01.454Z,19.17
2019-01-18T20:51:13.884Z,17.47
2019-01-18T20:54:22.010Z,20.40
2019-01-18T20:57:30.068Z,21.10
2019-01-18T21:00:39.543Z,21.00
2019-01-18T21:03:47.953Z,21.37
2019-01-18T21:06:56.031Z,29.63
2019-01-18T21:10:06.019Z,22.67
2019-01-18T21:13:14.089Z,23.73
2019-01-18T21:19:24.781Z,23.38
2019-01-18T21:22:32.961Z,19.90
2019-01-18T21:25:41.021Z,30.20
2019-01-18T21:28:49.327Z,22.43
2019-01-18T21:31:58.787Z,23.93
2019-01-18T21:35:06.876Z,21.43
2019-01-18T21:38:15.028Z,20.00
2019-01-18T21:41:23.104Z,22.60
2019-01-18T21:44:31.115Z,22.13
2019-01-18T21:47:40.569Z,26.57
2019-01-18T21:53:44.204Z,16.62
2019-01-18T21:59:54.418Z,21.70
2019-01-18T22:03:02.503Z,22.90
2019-01-18T22:06:11.162Z,20.82
2019-01-18T22:09:19.213Z,21.20
2019-01-18T22:12:27.287Z,17.13
2019-01-18T22:28:03.466Z,20.65
2019-01-18T22:31:12.843Z,21.63
2019-01-18T22:37:24.623Z,22.27
2019-01-18T22:40:33.038Z,19.80
2019-01-18T22:46:35.640Z,38.03
2019-01-18T22:49:43.999Z,25.15
2019-01-18T22:52:52.511Z,22.50
2019-01-18T22:56:00.559Z,23.02
2019-01-18T22:59:10.303Z,22.15
2019-01-18T23:05:39.001Z,22.73
2019-01-18T23:08:47.114Z,22.90
2019-01-18T23:11:56.757Z,24.07
2019-01-18T23:15:05.072Z,25.43
2019-01-18T23:18:13.481Z,20.57
2019-01-18T23:21:13.904Z,21.77
2019-01-18T23:24:24.956Z,24.13
2019-01-18T23:27:33.184Z,25.27
2019-01-18T23:33:43.217Z,27.87
2019-01-18T23:36:53.919Z,23.50
2019-01-18T23:43:04.552Z,26.25
2019-01-18T23:46:12.885Z,24.70
2019-01-18T23:49:21.187Z,21.37
2019-01-18T23:52:30.787Z,30.43
2019-01-18T23:55:39.158Z,24.40
2019-01-18T23:58:47.310Z,24.43
